Archival Weather

Kayes/Dag-Dag

Kayes/Dag-Dag, Mali (GAKD)

Report from: Thursday, September 21, 2023 1:00 PM UTC
Current time: Tuesday, July 16, 2024 8:18 AM UTC

Current weather – Weather history – Daily summaries
Weather forecast

Temperature29.0°C (84.2°F)
Heat index33.7°C (92.7°F)
Dew point24.0°C (75.2°F)
Winds 4 kts (2.1 m/s, 4.6 mph) South (180°)
Visibility6.2 mi. (10 km)
Clouds Few clouds 2,000 ft. (610 m)
Altimeter29.91 in.Hg (1013 mB)
Relative humidity75 %
Density altitude2,015 ft. (614 m)
Flight conditions Visual Meteorological Conditions
Raw dataGAKD 211300Z 18004KT 9999 FEW020 29/24 Q1013
An error has occurred. This application may no longer respond until reloaded. Reload 🗙